Hovedside
METAR-TAF:

METAR-TAF

Lufthavner :

Såtenäs, Sverige

breddegrad: 58-26N, lengdegrad: 012-42E, høyde over havet: 54 m

Gjeldene værobservasjon

Denne rapporten ble laget for 27 minutter siden, klokken 16:20 UTC
Vind 8 kt fra Øst
Temperatur 1°C
Luftfuktighet 100%
Trykk 1030 hPa
Sikt 10 km eller mer

METAR: ESIB 201620Z AUTO 08008KT 9999 BKN009/// OVC019/// 01/01 Q1030

Tid: 17:47 (16:47 UTC)

Varsel

Denne rapporten ble laget for 5 timer og 47 minutter siden, klokken 11:00 UTC
Varsel gyldig fra 20. klokken 12 UTC til 20. klokken 16 UTC
Vind 9 kt fra Øst-nordøst
Sikt 10 km eller mer
Spredte skyer i en høyde av 2500 ft
Midlertidig
fra 20. klokken 12 UTC til 20. klokken 16 UTC
Brutte skyer i en høyde av 800 ft

TAF: ESIB 201100Z 2012/2016 06009KT 9999 SCT025 TEMPO 2012/2016 BKN008 RMK MIL

Værobservasjoner og værvarsel for over 4000 flyplasser (METAR- og TAF-rapporter).

Tilgjengelige stasjoner er representert av de røde og gule prikkene på kartet.

Hold musepekeren over prikken for å se navnet på stasjonen.

Klikk så for å se værobservasjoner og -varsler.

For å forandre kartet kan du klikke på den grønne knappen med svart kryss for å zoome inn, på den grønne knappen med strek for å zoome ut, eller på de grønne pilene for å se tilstøtende kart.


METAR-TAF: